sensor_id;sensor_type;location;lat;lon;timestamp;P1;durP1;ratioP1;P2;durP2;ratioP2
2888;SDS011;1453;42.708;23.282;2024-03-23T00:51:35;33.50;;;17.63;;
2888;SDS011;1453;42.708;23.282;2024-03-23T00:54:02;28.83;;;16.60;;
2888;SDS011;1453;42.708;23.282;2024-03-23T00:56:28;25.20;;;16.20;;
2888;SDS011;1453;42.708;23.282;2024-03-23T00:58:54;24.52;;;15.52;;
2888;SDS011;1453;42.708;23.282;2024-03-23T01:01:20;27.03;;;16.03;;
2888;SDS011;1453;42.708;23.282;2024-03-23T01:03:46;22.00;;;15.50;;
2888;SDS011;1453;42.708;23.282;2024-03-23T01:06:12;22.42;;;14.25;;
2888;SDS011;1453;42.708;23.282;2024-03-23T01:08:38;25.57;;;14.80;;
2888;SDS011;1453;42.708;23.282;2024-03-23T01:11:04;21.27;;;14.40;;
2888;SDS011;1453;42.708;23.282;2024-03-23T01:13:30;28.50;;;15.50;;
2888;SDS011;1453;42.708;23.282;2024-03-23T01:15:56;21.33;;;13.83;;
2888;SDS011;1453;42.708;23.282;2024-03-23T01:18:23;18.58;;;13.82;;
2888;SDS011;1453;42.708;23.282;2024-03-23T01:20:51;20.55;;;14.18;;
2888;SDS011;1453;42.708;23.282;2024-03-23T01:23:17;18.95;;;13.98;;
2888;SDS011;1453;42.708;23.282;2024-03-23T01:25:43;22.63;;;13.50;;
2888;SDS011;1453;42.708;23.282;2024-03-23T01:28:09;22.83;;;14.37;;
2888;SDS011;1453;42.708;23.282;2024-03-23T01:30:35;21.00;;;14.70;;
2888;SDS011;1453;42.708;23.282;2024-03-23T01:33:01;26.17;;;14.65;;
2888;SDS011;1453;42.708;23.282;2024-03-23T01:35:30;21.20;;;13.25;;
2888;SDS011;1453;42.708;23.282;2024-03-23T01:37:56;26.10;;;13.00;;
2888;SDS011;1453;42.708;23.282;2024-03-23T01:40:22;21.40;;;13.47;;
2888;SDS011;1453;42.708;23.282;2024-03-23T01:42:57;18.20;;;12.57;;
2888;SDS011;1453;42.708;23.282;2024-03-23T01:45:28;20.23;;;12.23;;
2888;SDS011;1453;42.708;23.282;2024-03-23T01:47:55;27.63;;;13.13;;
2888;SDS011;1453;42.708;23.282;2024-03-23T01:50:22;19.80;;;12.98;;
2888;SDS011;1453;42.708;23.282;2024-03-23T01:52:49;21.20;;;13.80;;
2888;SDS011;1453;42.708;23.282;2024-03-23T01:55:15;20.15;;;12.60;;
2888;SDS011;1453;42.708;23.282;2024-03-23T01:57:41;21.60;;;12.40;;
2888;SDS011;1453;42.708;23.282;2024-03-23T02:00:08;24.35;;;13.27;;
2888;SDS011;1453;42.708;23.282;2024-03-23T02:02:40;23.40;;;13.30;;
2888;SDS011;1453;42.708;23.282;2024-03-23T02:05:11;26.45;;;12.02;;
2888;SDS011;1453;42.708;23.282;2024-03-23T02:07:38;21.85;;;12.60;;
2888;SDS011;1453;42.708;23.282;2024-03-23T02:10:08;16.90;;;11.90;;
2888;SDS011;1453;42.708;23.282;2024-03-23T02:12:35;19.55;;;12.05;;
2888;SDS011;1453;42.708;23.282;2024-03-23T02:15:02;21.20;;;12.75;;
2888;SDS011;1453;42.708;23.282;2024-03-23T02:17:29;21.67;;;12.80;;
2888;SDS011;1453;42.708;23.282;2024-03-23T02:19:59;16.92;;;11.63;;
2888;SDS011;1453;42.708;23.282;2024-03-23T02:22:39;18.77;;;10.95;;
2888;SDS011;1453;42.708;23.282;2024-03-23T02:25:05;18.17;;;11.95;;
2888;SDS011;1453;42.708;23.282;2024-03-23T02:27:32;43.25;;;27.60;;
2888;SDS011;1453;42.708;23.282;2024-03-23T02:29:59;26.20;;;16.30;;
2888;SDS011;1453;42.708;23.282;2024-03-23T02:32:25;24.30;;;14.85;;
2888;SDS011;1453;42.708;23.282;2024-03-23T02:34:51;22.43;;;14.60;;
2888;SDS011;1453;42.708;23.282;2024-03-23T02:37:17;23.70;;;14.27;;
2888;SDS011;1453;42.708;23.282;2024-03-23T02:39:43;21.47;;;13.20;;
2888;SDS011;1453;42.708;23.282;2024-03-23T02:42:09;20.20;;;11.20;;
2888;SDS011;1453;42.708;23.282;2024-03-23T02:44:35;20.08;;;12.80;;
2888;SDS011;1453;42.708;23.282;2024-03-23T02:47:01;18.37;;;11.57;;
2888;SDS011;1453;42.708;23.282;2024-03-23T02:49:27;16.52;;;11.68;;
2888;SDS011;1453;42.708;23.282;2024-03-23T02:51:53;16.77;;;11.73;;
2888;SDS011;1453;42.708;23.282;2024-03-23T02:54:19;19.77;;;11.27;;
2888;SDS011;1453;42.708;23.282;2024-03-23T02:56:45;16.03;;;11.03;;
2888;SDS011;1453;42.708;23.282;2024-03-23T02:59:11;19.00;;;12.00;;
2888;SDS011;1453;42.708;23.282;2024-03-23T03:01:36;19.00;;;11.00;;
2888;SDS011;1453;42.708;23.282;2024-03-23T03:04:02;17.30;;;11.10;;
2888;SDS011;1453;42.708;23.282;2024-03-23T03:06:30;33.67;;;10.65;;
2888;SDS011;1453;42.708;23.282;2024-03-23T03:08:56;18.10;;;10.20;;
2888;SDS011;1453;42.708;23.282;2024-03-23T03:11:22;19.17;;;10.47;;
2888;SDS011;1453;42.708;23.282;2024-03-23T03:13:48;16.00;;;10.18;;
2888;SDS011;1453;42.708;23.282;2024-03-23T03:16:14;23.63;;;11.60;;
2888;SDS011;1453;42.708;23.282;2024-03-23T03:18:40;18.73;;;11.57;;
2888;SDS011;1453;42.708;23.282;2024-03-23T03:21:06;15.52;;;10.02;;
2888;SDS011;1453;42.708;23.282;2024-03-23T03:23:38;18.40;;;10.52;;
2888;SDS011;1453;42.708;23.282;2024-03-23T03:26:05;15.95;;;9.98;;
2888;SDS011;1453;42.708;23.282;2024-03-23T03:28:32;15.55;;;9.50;;
2888;SDS011;1453;42.708;23.282;2024-03-23T03:30:58;14.90;;;9.35;;
2888;SDS011;1453;42.708;23.282;2024-03-23T03:33:25;19.35;;;10.15;;
2888;SDS011;1453;42.708;23.282;2024-03-23T03:35:52;15.98;;;10.73;;
2888;SDS011;1453;42.708;23.282;2024-03-23T03:38:19;14.52;;;9.30;;
2888;SDS011;1453;42.708;23.282;2024-03-23T03:40:45;19.95;;;10.55;;
2888;SDS011;1453;42.708;23.282;2024-03-23T03:43:11;16.38;;;10.18;;
2888;SDS011;1453;42.708;23.282;2024-03-23T03:45:37;17.60;;;9.50;;
2888;SDS011;1453;42.708;23.282;2024-03-23T03:48:03;17.03;;;10.00;;
2888;SDS011;1453;42.708;23.282;2024-03-23T03:50:30;15.82;;;9.45;;
2888;SDS011;1453;42.708;23.282;2024-03-23T03:52:56;21.60;;;11.13;;
2888;SDS011;1453;42.708;23.282;2024-03-23T03:55:22;18.67;;;10.70;;
2888;SDS011;1453;42.708;23.282;2024-03-23T03:57:47;17.30;;;10.47;;
2888;SDS011;1453;42.708;23.282;2024-03-23T04:00:13;14.53;;;10.30;;
2888;SDS011;1453;42.708;23.282;2024-03-23T04:02:40;18.52;;;11.10;;
2888;SDS011;1453;42.708;23.282;2024-03-23T04:05:07;18.23;;;11.37;;
2888;SDS011;1453;42.708;23.282;2024-03-23T04:07:33;17.95;;;10.27;;
2888;SDS011;1453;42.708;23.282;2024-03-23T04:09:59;15.10;;;10.00;;
2888;SDS011;1453;42.708;23.282;2024-03-23T04:12:25;16.90;;;10.53;;
2888;SDS011;1453;42.708;23.282;2024-03-23T04:14:51;17.10;;;10.65;;
2888;SDS011;1453;42.708;23.282;2024-03-23T04:17:17;19.17;;;11.70;;
2888;SDS011;1453;42.708;23.282;2024-03-23T04:19:43;19.53;;;11.40;;
2888;SDS011;1453;42.708;23.282;2024-03-23T04:22:09;15.95;;;11.25;;
2888;SDS011;1453;42.708;23.282;2024-03-23T04:24:35;19.80;;;11.60;;
2888;SDS011;1453;42.708;23.282;2024-03-23T04:27:02;19.73;;;12.13;;
2888;SDS011;1453;42.708;23.282;2024-03-23T04:29:28;20.13;;;11.82;;
2888;SDS011;1453;42.708;23.282;2024-03-23T04:31:54;15.73;;;10.90;;
2888;SDS011;1453;42.708;23.282;2024-03-23T04:34:20;22.80;;;11.23;;
2888;SDS011;1453;42.708;23.282;2024-03-23T04:36:47;18.70;;;13.93;;
2888;SDS011;1453;42.708;23.282;2024-03-23T04:39:13;21.60;;;13.10;;
2888;SDS011;1453;42.708;23.282;2024-03-23T04:41:39;21.33;;;12.30;;
2888;SDS011;1453;42.708;23.282;2024-03-23T04:44:05;23.98;;;15.20;;
2888;SDS011;1453;42.708;23.282;2024-03-23T04:46:31;32.88;;;20.50;;
2888;SDS011;1453;42.708;23.282;2024-03-23T04:48:57;44.10;;;27.97;;
2888;SDS011;1453;42.708;23.282;2024-03-23T04:51:23;43.83;;;25.10;;
2888;SDS011;1453;42.708;23.282;2024-03-23T04:53:49;31.67;;;19.15;;
2888;SDS011;1453;42.708;23.282;2024-03-23T04:56:16;28.35;;;14.27;;
2888;SDS011;1453;42.708;23.282;2024-03-23T04:58:42;29.20;;;15.45;;
2888;SDS011;1453;42.708;23.282;2024-03-23T05:01:09;29.77;;;13.43;;
2888;SDS011;1453;42.708;23.282;2024-03-23T05:03:36;19.45;;;12.30;;
2888;SDS011;1453;42.708;23.282;2024-03-23T05:06:02;19.95;;;12.98;;
2888;SDS011;1453;42.708;23.282;2024-03-23T05:08:28;22.30;;;11.88;;
2888;SDS011;1453;42.708;23.282;2024-03-23T05:10:55;17.63;;;12.15;;
2888;SDS011;1453;42.708;23.282;2024-03-23T05:13:21;16.33;;;11.13;;
2888;SDS011;1453;42.708;23.282;2024-03-23T05:15:56;17.17;;;12.27;;
2888;SDS011;1453;42.708;23.282;2024-03-23T05:18:22;17.77;;;11.13;;
2888;SDS011;1453;42.708;23.282;2024-03-23T05:20:48;17.37;;;12.17;;
2888;SDS011;1453;42.708;23.282;2024-03-23T05:23:13;21.80;;;13.00;;
2888;SDS011;1453;42.708;23.282;2024-03-23T05:25:40;19.48;;;11.93;;
2888;SDS011;1453;42.708;23.282;2024-03-23T05:28:06;23.83;;;13.67;;
2888;SDS011;1453;42.708;23.282;2024-03-23T05:30:32;20.70;;;13.80;;
2888;SDS011;1453;42.708;23.282;2024-03-23T05:32:58;22.17;;;13.95;;
2888;SDS011;1453;42.708;23.282;2024-03-23T05:35:24;27.00;;;15.10;;
2888;SDS011;1453;42.708;23.282;2024-03-23T05:37:50;30.53;;;16.20;;
2888;SDS011;1453;42.708;23.282;2024-03-23T05:40:16;31.80;;;16.00;;
2888;SDS011;1453;42.708;23.282;2024-03-23T05:42:42;24.83;;;14.47;;
2888;SDS011;1453;42.708;23.282;2024-03-23T05:45:08;27.20;;;13.23;;
2888;SDS011;1453;42.708;23.282;2024-03-23T05:47:34;17.17;;;12.45;;
2888;SDS011;1453;42.708;23.282;2024-03-23T05:50:00;23.83;;;14.52;;
2888;SDS011;1453;42.708;23.282;2024-03-23T05:52:27;14.95;;;11.00;;
2888;SDS011;1453;42.708;23.282;2024-03-23T05:54:53;21.23;;;13.30;;
2888;SDS011;1453;42.708;23.282;2024-03-23T05:57:19;24.85;;;13.60;;
2888;SDS011;1453;42.708;23.282;2024-03-23T05:59:45;18.07;;;12.30;;
2888;SDS011;1453;42.708;23.282;2024-03-23T06:02:11;19.37;;;11.77;;
2888;SDS011;1453;42.708;23.282;2024-03-23T06:04:37;16.07;;;11.23;;
2888;SDS011;1453;42.708;23.282;2024-03-23T06:07:03;21.13;;;11.77;;
2888;SDS011;1453;42.708;23.282;2024-03-23T06:09:31;20.52;;;13.32;;
2888;SDS011;1453;42.708;23.282;2024-03-23T06:11:57;14.43;;;11.27;;
2888;SDS011;1453;42.708;23.282;2024-03-23T06:14:23;19.03;;;14.00;;
2888;SDS011;1453;42.708;23.282;2024-03-23T06:16:49;16.40;;;11.37;;
2888;SDS011;1453;42.708;23.282;2024-03-23T06:19:15;30.13;;;18.50;;
2888;SDS011;1453;42.708;23.282;2024-03-23T06:21:44;20.30;;;14.33;;
2888;SDS011;1453;42.708;23.282;2024-03-23T06:24:11;23.65;;;14.95;;
2888;SDS011;1453;42.708;23.282;2024-03-23T06:26:38;21.65;;;15.45;;
2888;SDS011;1453;42.708;23.282;2024-03-23T06:29:04;22.67;;;14.60;;
2888;SDS011;1453;42.708;23.282;2024-03-23T06:31:30;29.55;;;15.60;;
2888;SDS011;1453;42.708;23.282;2024-03-23T06:33:56;27.70;;;16.92;;
2888;SDS011;1453;42.708;23.282;2024-03-23T06:36:22;23.57;;;15.70;;
2888;SDS011;1453;42.708;23.282;2024-03-23T06:38:49;19.25;;;14.93;;
2888;SDS011;1453;42.708;23.282;2024-03-23T06:41:15;24.90;;;16.00;;
2888;SDS011;1453;42.708;23.282;2024-03-23T06:43:41;20.80;;;15.77;;
2888;SDS011;1453;42.708;23.282;2024-03-23T06:46:07;23.23;;;17.40;;
2888;SDS011;1453;42.708;23.282;2024-03-23T06:48:33;20.93;;;16.27;;
2888;SDS011;1453;42.708;23.282;2024-03-23T06:50:58;21.50;;;16.40;;
2888;SDS011;1453;42.708;23.282;2024-03-23T06:53:24;22.10;;;17.50;;
2888;SDS011;1453;42.708;23.282;2024-03-23T06:55:54;21.63;;;16.10;;
2888;SDS011;1453;42.708;23.282;2024-03-23T06:58:20;19.33;;;17.43;;
2888;SDS011;1453;42.708;23.282;2024-03-23T07:00:49;21.60;;;17.07;;
2888;SDS011;1453;42.708;23.282;2024-03-23T07:03:16;20.43;;;17.30;;
2888;SDS011;1453;42.708;23.282;2024-03-23T07:05:42;22.83;;;18.53;;
2888;SDS011;1453;42.708;23.282;2024-03-23T07:08:08;19.33;;;16.33;;
2888;SDS011;1453;42.708;23.282;2024-03-23T07:10:34;16.73;;;15.10;;
2888;SDS011;1453;42.708;23.282;2024-03-23T07:13:00;18.97;;;16.03;;
2888;SDS011;1453;42.708;23.282;2024-03-23T07:15:26;20.00;;;17.87;;
2888;SDS011;1453;42.708;23.282;2024-03-23T07:17:52;19.40;;;17.17;;
2888;SDS011;1453;42.708;23.282;2024-03-23T07:20:18;18.87;;;16.90;;
2888;SDS011;1453;42.708;23.282;2024-03-23T07:22:45;20.67;;;17.00;;
2888;SDS011;1453;42.708;23.282;2024-03-23T07:25:12;17.73;;;15.83;;
2888;SDS011;1453;42.708;23.282;2024-03-23T07:27:38;21.10;;;17.87;;
2888;SDS011;1453;42.708;23.282;2024-03-23T07:30:05;17.73;;;15.97;;
2888;SDS011;1453;42.708;23.282;2024-03-23T07:32:32;15.97;;;14.37;;
2888;SDS011;1453;42.708;23.282;2024-03-23T07:34:57;19.80;;;14.60;;
2888;SDS011;1453;42.708;23.282;2024-03-23T07:37:23;18.50;;;14.83;;
2888;SDS011;1453;42.708;23.282;2024-03-23T07:39:50;22.27;;;16.80;;
2888;SDS011;1453;42.708;23.282;2024-03-23T07:42:16;17.90;;;15.90;;
2888;SDS011;1453;42.708;23.282;2024-03-23T07:44:42;25.43;;;18.60;;
2888;SDS011;1453;42.708;23.282;2024-03-23T07:47:08;20.00;;;17.80;;
2888;SDS011;1453;42.708;23.282;2024-03-23T07:49:34;19.67;;;15.80;;
2888;SDS011;1453;42.708;23.282;2024-03-23T07:52:00;19.53;;;17.67;;
2888;SDS011;1453;42.708;23.282;2024-03-23T07:54:26;16.47;;;14.70;;
2888;SDS011;1453;42.708;23.282;2024-03-23T07:56:52;16.57;;;14.70;;
2888;SDS011;1453;42.708;23.282;2024-03-23T07:59:18;15.33;;;13.50;;
2888;SDS011;1453;42.708;23.282;2024-03-23T08:01:44;17.13;;;15.50;;
2888;SDS011;1453;42.708;23.282;2024-03-23T08:04:11;20.97;;;15.83;;
2888;SDS011;1453;42.708;23.282;2024-03-23T08:06:37;17.80;;;16.00;;
2888;SDS011;1453;42.708;23.282;2024-03-23T08:09:03;21.53;;;16.30;;
2888;SDS011;1453;42.708;23.282;2024-03-23T08:11:30;21.63;;;18.80;;
2888;SDS011;1453;42.708;23.282;2024-03-23T08:13:58;20.10;;;18.00;;
2888;SDS011;1453;42.708;23.282;2024-03-23T08:16:24;17.20;;;15.53;;
2888;SDS011;1453;42.708;23.282;2024-03-23T08:18:53;19.83;;;15.83;;
2888;SDS011;1453;42.708;23.282;2024-03-23T08:21:22;19.33;;;16.73;;
2888;SDS011;1453;42.708;23.282;2024-03-23T08:23:50;21.83;;;16.80;;
2888;SDS011;1453;42.708;23.282;2024-03-23T08:26:16;24.10;;;17.27;;
2888;SDS011;1453;42.708;23.282;2024-03-23T08:28:45;18.50;;;16.30;;
2888;SDS011;1453;42.708;23.282;2024-03-23T08:31:11;19.30;;;16.47;;
2888;SDS011;1453;42.708;23.282;2024-03-23T08:33:38;21.63;;;16.93;;
2888;SDS011;1453;42.708;23.282;2024-03-23T08:36:05;19.07;;;17.23;;
2888;SDS011;1453;42.708;23.282;2024-03-23T08:38:33;18.57;;;16.50;;
2888;SDS011;1453;42.708;23.282;2024-03-23T08:41:04;19.87;;;17.97;;
2888;SDS011;1453;42.708;23.282;2024-03-23T08:43:37;20.40;;;18.30;;
2888;SDS011;1453;42.708;23.282;2024-03-23T08:46:05;21.07;;;17.87;;
2888;SDS011;1453;42.708;23.282;2024-03-23T08:48:36;20.20;;;18.27;;
2888;SDS011;1453;42.708;23.282;2024-03-23T08:51:20;22.27;;;20.17;;
2888;SDS011;1453;42.708;23.282;2024-03-23T08:53:46;19.47;;;17.53;;
2888;SDS011;1453;42.708;23.282;2024-03-23T08:56:12;22.67;;;18.90;;
2888;SDS011;1453;42.708;23.282;2024-03-23T08:58:38;20.00;;;18.10;;
2888;SDS011;1453;42.708;23.282;2024-03-23T09:01:08;22.67;;;20.47;;
2888;SDS011;1453;42.708;23.282;2024-03-23T09:03:40;22.67;;;20.27;;
2888;SDS011;1453;42.708;23.282;2024-03-23T09:06:10;21.13;;;18.90;;
2888;SDS011;1453;42.708;23.282;2024-03-23T09:08:37;20.93;;;18.73;;
2888;SDS011;1453;42.708;23.282;2024-03-23T09:11:06;19.83;;;17.73;;
2888;SDS011;1453;42.708;23.282;2024-03-23T09:13:33;22.20;;;19.23;;
2888;SDS011;1453;42.708;23.282;2024-03-23T09:16:00;27.27;;;19.07;;
2888;SDS011;1453;42.708;23.282;2024-03-23T09:18:27;22.87;;;19.57;;
2888;SDS011;1453;42.708;23.282;2024-03-23T09:20:57;22.07;;;19.30;;
2888;SDS011;1453;42.708;23.282;2024-03-23T09:23:22;25.23;;;20.97;;
2888;SDS011;1453;42.708;23.282;2024-03-23T09:25:48;23.17;;;20.67;;
2888;SDS011;1453;42.708;23.282;2024-03-23T09:28:14;24.13;;;19.50;;
2888;SDS011;1453;42.708;23.282;2024-03-23T09:30:40;20.57;;;18.37;;
2888;SDS011;1453;42.708;23.282;2024-03-23T09:33:13;19.60;;;17.77;;
2888;SDS011;1453;42.708;23.282;2024-03-23T09:35:42;22.13;;;19.83;;
2888;SDS011;1453;42.708;23.282;2024-03-23T09:38:12;21.83;;;18.50;;
2888;SDS011;1453;42.708;23.282;2024-03-23T09:40:41;20.63;;;18.47;;
2888;SDS011;1453;42.708;23.282;2024-03-23T09:43:08;24.70;;;20.63;;
2888;SDS011;1453;42.708;23.282;2024-03-23T09:45:38;22.87;;;19.63;;
2888;SDS011;1453;42.708;23.282;2024-03-23T09:48:08;20.67;;;18.70;;
2888;SDS011;1453;42.708;23.282;2024-03-23T09:53:04;22.70;;;19.40;;
2888;SDS011;1453;42.708;23.282;2024-03-23T09:55:35;19.57;;;17.47;;
2888;SDS011;1453;42.708;23.282;2024-03-23T09:58:01;21.37;;;19.17;;
2888;SDS011;1453;42.708;23.282;2024-03-23T10:00:27;21.07;;;19.03;;
2888;SDS011;1453;42.708;23.282;2024-03-23T10:02:57;20.80;;;18.97;;
2888;SDS011;1453;42.708;23.282;2024-03-23T10:05:27;21.03;;;18.50;;
2888;SDS011;1453;42.708;23.282;2024-03-23T10:10:43;22.00;;;19.40;;
2888;SDS011;1453;42.708;23.282;2024-03-23T10:13:10;24.03;;;20.80;;
2888;SDS011;1453;42.708;23.282;2024-03-23T10:15:39;22.33;;;20.47;;
2888;SDS011;1453;42.708;23.282;2024-03-23T10:18:18;21.53;;;19.40;;
2888;SDS011;1453;42.708;23.282;2024-03-23T10:20:50;20.90;;;19.00;;
2888;SDS011;1453;42.708;23.282;2024-03-23T10:23:38;20.63;;;18.60;;
2888;SDS011;1453;42.708;23.282;2024-03-23T10:26:18;20.83;;;18.60;;
2888;SDS011;1453;42.708;23.282;2024-03-23T10:28:58;21.50;;;19.53;;
2888;SDS011;1453;42.708;23.282;2024-03-23T10:31:32;19.90;;;18.10;;
2888;SDS011;1453;42.708;23.282;2024-03-23T10:34:03;20.90;;;18.83;;
2888;SDS011;1453;42.708;23.282;2024-03-23T10:36:30;21.23;;;18.70;;
2888;SDS011;1453;42.708;23.282;2024-03-23T10:38:56;19.73;;;17.93;;
2888;SDS011;1453;42.708;23.282;2024-03-23T10:41:28;20.13;;;18.33;;
2888;SDS011;1453;42.708;23.282;2024-03-23T10:43:57;23.40;;;21.30;;
2888;SDS011;1453;42.708;23.282;2024-03-23T10:46:25;18.57;;;16.87;;
2888;SDS011;1453;42.708;23.282;2024-03-23T10:48:51;19.00;;;16.50;;
2888;SDS011;1453;42.708;23.282;2024-03-23T10:51:16;19.20;;;17.20;;
2888;SDS011;1453;42.708;23.282;2024-03-23T10:53:42;18.40;;;16.70;;
2888;SDS011;1453;42.708;23.282;2024-03-23T10:56:10;18.70;;;16.93;;
2888;SDS011;1453;42.708;23.282;2024-03-23T10:58:41;18.93;;;17.10;;
2888;SDS011;1453;42.708;23.282;2024-03-23T11:01:11;15.53;;;14.10;;
2888;SDS011;1453;42.708;23.282;2024-03-23T11:03:39;16.03;;;14.70;;
2888;SDS011;1453;42.708;23.282;2024-03-23T11:06:10;16.67;;;14.97;;
2888;SDS011;1453;42.708;23.282;2024-03-23T11:08:36;15.93;;;14.40;;
2888;SDS011;1453;42.708;23.282;2024-03-23T11:11:17;14.00;;;12.70;;
2888;SDS011;1453;42.708;23.282;2024-03-23T11:13:54;13.67;;;12.67;;
2888;SDS011;1453;42.708;23.282;2024-03-23T11:16:24;15.30;;;13.97;;
2888;SDS011;1453;42.708;23.282;2024-03-23T11:19:26;14.87;;;13.20;;
2888;SDS011;1453;42.708;23.282;2024-03-23T11:22:01;17.13;;;15.60;;
2888;SDS011;1453;42.708;23.282;2024-03-23T11:24:28;15.37;;;14.07;;
2888;SDS011;1453;42.708;23.282;2024-03-23T11:26:54;16.63;;;13.57;;
2888;SDS011;1453;42.708;23.282;2024-03-23T11:29:20;16.50;;;14.97;;
2888;SDS011;1453;42.708;23.282;2024-03-23T11:34:13;14.93;;;13.40;;
2888;SDS011;1453;42.708;23.282;2024-03-23T11:36:41;16.23;;;14.07;;
2888;SDS011;1453;42.708;23.282;2024-03-23T11:39:14;15.03;;;13.50;;
2888;SDS011;1453;42.708;23.282;2024-03-23T11:41:55;14.90;;;13.43;;
2888;SDS011;1453;42.708;23.282;2024-03-23T11:44:25;14.27;;;12.97;;
2888;SDS011;1453;42.708;23.282;2024-03-23T11:46:52;18.27;;;13.53;;
2888;SDS011;1453;42.708;23.282;2024-03-23T11:49:26;14.50;;;13.00;;
2888;SDS011;1453;42.708;23.282;2024-03-23T11:51:54;14.93;;;13.63;;
2888;SDS011;1453;42.708;23.282;2024-03-23T11:54:22;14.63;;;13.07;;
2888;SDS011;1453;42.708;23.282;2024-03-23T11:57:02;14.47;;;13.13;;
2888;SDS011;1453;42.708;23.282;2024-03-23T11:59:39;18.43;;;14.17;;
2888;SDS011;1453;42.708;23.282;2024-03-23T12:02:10;14.10;;;12.90;;
2888;SDS011;1453;42.708;23.282;2024-03-23T12:04:39;14.23;;;12.83;;
2888;SDS011;1453;42.708;23.282;2024-03-23T12:07:19;13.77;;;12.70;;
2888;SDS011;1453;42.708;23.282;2024-03-23T12:09:46;14.37;;;13.27;;
2888;SDS011;1453;42.708;23.282;2024-03-23T12:12:28;14.30;;;13.10;;
2888;SDS011;1453;42.708;23.282;2024-03-23T12:17:49;15.20;;;13.80;;
2888;SDS011;1453;42.708;23.282;2024-03-23T12:20:15;14.10;;;12.83;;
2888;SDS011;1453;42.708;23.282;2024-03-23T12:22:41;14.77;;;13.50;;
2888;SDS011;1453;42.708;23.282;2024-03-23T12:25:07;14.13;;;12.77;;
2888;SDS011;1453;42.708;23.282;2024-03-23T12:27:33;17.43;;;13.30;;
2888;SDS011;1453;42.708;23.282;2024-03-23T12:29:59;11.90;;;10.70;;
2888;SDS011;1453;42.708;23.282;2024-03-23T12:32:27;10.60;;;9.80;;
2888;SDS011;1453;42.708;23.282;2024-03-23T12:34:53;10.73;;;9.83;;
2888;SDS011;1453;42.708;23.282;2024-03-23T12:37:19;11.17;;;10.37;;
2888;SDS011;1453;42.708;23.282;2024-03-23T12:39:44;8.50;;;8.00;;
2888;SDS011;1453;42.708;23.282;2024-03-23T12:42:10;9.47;;;8.87;;
2888;SDS011;1453;42.708;23.282;2024-03-23T12:44:36;9.97;;;9.13;;
2888;SDS011;1453;42.708;23.282;2024-03-23T12:47:02;9.13;;;8.63;;
2888;SDS011;1453;42.708;23.282;2024-03-23T12:49:28;9.93;;;9.43;;
2888;SDS011;1453;42.708;23.282;2024-03-23T12:51:55;9.13;;;8.63;;
2888;SDS011;1453;42.708;23.282;2024-03-23T12:54:22;8.83;;;8.20;;
2888;SDS011;1453;42.708;23.282;2024-03-23T12:56:48;8.87;;;8.37;;
2888;SDS011;1453;42.708;23.282;2024-03-23T12:59:14;8.43;;;7.93;;
2888;SDS011;1453;42.708;23.282;2024-03-23T13:01:41;8.73;;;8.23;;
2888;SDS011;1453;42.708;23.282;2024-03-23T13:04:08;8.70;;;8.10;;
2888;SDS011;1453;42.708;23.282;2024-03-23T13:06:34;10.03;;;9.20;;
2888;SDS011;1453;42.708;23.282;2024-03-23T13:09:01;9.27;;;8.57;;
2888;SDS011;1453;42.708;23.282;2024-03-23T13:11:30;9.20;;;8.60;;
2888;SDS011;1453;42.708;23.282;2024-03-23T13:13:56;9.00;;;8.50;;
2888;SDS011;1453;42.708;23.282;2024-03-23T13:16:22;9.00;;;8.30;;
2888;SDS011;1453;42.708;23.282;2024-03-23T13:18:48;8.77;;;8.27;;
2888;SDS011;1453;42.708;23.282;2024-03-23T13:21:14;8.90;;;8.40;;
2888;SDS011;1453;42.708;23.282;2024-03-23T13:23:41;9.00;;;8.33;;
2888;SDS011;1453;42.708;23.282;2024-03-23T13:26:08;9.47;;;8.63;;
2888;SDS011;1453;42.708;23.282;2024-03-23T13:28:34;10.43;;;9.73;;
2888;SDS011;1453;42.708;23.282;2024-03-23T13:31:01;8.70;;;8.20;;
2888;SDS011;1453;42.708;23.282;2024-03-23T13:33:30;9.07;;;8.57;;
2888;SDS011;1453;42.708;23.282;2024-03-23T13:35:57;9.10;;;8.50;;
2888;SDS011;1453;42.708;23.282;2024-03-23T13:38:24;9.30;;;8.50;;
2888;SDS011;1453;42.708;23.282;2024-03-23T13:40:57;9.30;;;8.63;;
2888;SDS011;1453;42.708;23.282;2024-03-23T13:43:26;8.97;;;8.20;;
2888;SDS011;1453;42.708;23.282;2024-03-23T13:45:54;8.90;;;8.40;;
2888;SDS011;1453;42.708;23.282;2024-03-23T13:48:25;9.73;;;9.03;;
2888;SDS011;1453;42.708;23.282;2024-03-23T13:50:58;9.40;;;8.80;;
2888;SDS011;1453;42.708;23.282;2024-03-23T13:53:30;9.53;;;8.93;;
2888;SDS011;1453;42.708;23.282;2024-03-23T13:55:59;9.27;;;8.63;;
2888;SDS011;1453;42.708;23.282;2024-03-23T13:58:26;10.47;;;9.67;;
2888;SDS011;1453;42.708;23.282;2024-03-23T14:00:52;11.17;;;10.27;;
2888;SDS011;1453;42.708;23.282;2024-03-23T14:03:18;10.30;;;9.40;;
2888;SDS011;1453;42.708;23.282;2024-03-23T14:05:45;10.37;;;9.67;;
2888;SDS011;1453;42.708;23.282;2024-03-23T14:08:12;12.93;;;11.93;;
2888;SDS011;1453;42.708;23.282;2024-03-23T14:10:41;11.33;;;10.43;;
2888;SDS011;1453;42.708;23.282;2024-03-23T14:13:08;11.37;;;10.43;;
2888;SDS011;1453;42.708;23.282;2024-03-23T14:15:34;10.20;;;9.40;;
2888;SDS011;1453;42.708;23.282;2024-03-23T14:18:01;9.97;;;9.37;;
2888;SDS011;1453;42.708;23.282;2024-03-23T14:20:28;9.70;;;9.10;;
2888;SDS011;1453;42.708;23.282;2024-03-23T14:22:54;9.90;;;9.30;;
2888;SDS011;1453;42.708;23.282;2024-03-23T14:25:21;9.60;;;9.00;;
2888;SDS011;1453;42.708;23.282;2024-03-23T14:27:49;10.37;;;9.67;;
2888;SDS011;1453;42.708;23.282;2024-03-23T14:30:14;10.70;;;9.90;;
2888;SDS011;1453;42.708;23.282;2024-03-23T14:32:40;10.53;;;9.67;;
2888;SDS011;1453;42.708;23.282;2024-03-23T14:35:06;10.30;;;9.60;;
2888;SDS011;1453;42.708;23.282;2024-03-23T14:37:36;10.40;;;9.80;;
2888;SDS011;1453;42.708;23.282;2024-03-23T14:40:03;10.87;;;9.70;;
2888;SDS011;1453;42.708;23.282;2024-03-23T14:42:30;10.40;;;9.70;;
2888;SDS011;1453;42.708;23.282;2024-03-23T14:44:59;9.60;;;8.90;;
2888;SDS011;1453;42.708;23.282;2024-03-23T14:47:28;9.67;;;9.03;;
2888;SDS011;1453;42.708;23.282;2024-03-23T14:50:07;11.13;;;10.30;;
2888;SDS011;1453;42.708;23.282;2024-03-23T14:52:36;9.40;;;8.90;;
2888;SDS011;1453;42.708;23.282;2024-03-23T14:55:02;10.03;;;9.33;;
2888;SDS011;1453;42.708;23.282;2024-03-23T14:57:29;10.23;;;9.23;;
2888;SDS011;1453;42.708;23.282;2024-03-23T14:59:54;10.00;;;9.33;;
2888;SDS011;1453;42.708;23.282;2024-03-23T15:02:20;10.00;;;9.20;;
2888;SDS011;1453;42.708;23.282;2024-03-23T15:04:46;10.70;;;9.90;;
2888;SDS011;1453;42.708;23.282;2024-03-23T15:07:12;10.40;;;9.60;;
2888;SDS011;1453;42.708;23.282;2024-03-23T15:09:38;10.10;;;9.30;;
2888;SDS011;1453;42.708;23.282;2024-03-23T15:12:04;10.07;;;9.43;;
2888;SDS011;1453;42.708;23.282;2024-03-23T15:14:30;10.83;;;9.93;;
2888;SDS011;1453;42.708;23.282;2024-03-23T15:16:56;11.03;;;10.00;;
2888;SDS011;1453;42.708;23.282;2024-03-23T15:19:22;10.73;;;9.87;;
2888;SDS011;1453;42.708;23.282;2024-03-23T15:21:48;11.47;;;10.57;;
2888;SDS011;1453;42.708;23.282;2024-03-23T15:24:14;10.10;;;9.30;;
2888;SDS011;1453;42.708;23.282;2024-03-23T15:26:40;10.30;;;9.70;;
2888;SDS011;1453;42.708;23.282;2024-03-23T15:29:07;10.83;;;9.83;;
2888;SDS011;1453;42.708;23.282;2024-03-23T15:31:41;9.93;;;8.90;;
2888;SDS011;1453;42.708;23.282;2024-03-23T15:34:08;11.73;;;10.73;;
2888;SDS011;1453;42.708;23.282;2024-03-23T15:36:37;11.27;;;10.20;;
2888;SDS011;1453;42.708;23.282;2024-03-23T15:39:06;10.00;;;9.37;;
2888;SDS011;1453;42.708;23.282;2024-03-23T15:41:32;8.97;;;8.27;;